createdAt,value
2023-02-02T00:02:45.371Z,3.99
2023-02-02T00:05:49.346Z,4.01
2023-02-02T00:08:51.092Z,4.01
2023-02-02T00:11:52.697Z,3.98
2023-02-02T00:14:54.239Z,3.98
2023-02-02T00:17:55.766Z,3.95
2023-02-02T00:20:57.272Z,3.94
2023-02-02T00:23:59.211Z,3.91
2023-02-02T00:27:00.761Z,3.86
2023-02-02T00:30:02.313Z,3.88
2023-02-02T00:33:03.901Z,3.87
2023-02-02T00:36:05.858Z,3.86
2023-02-02T00:39:08.016Z,3.83
2023-02-02T00:42:11.562Z,3.79
2023-02-02T00:45:16.895Z,3.79
2023-02-02T00:48:19.967Z,3.73
2023-02-02T00:51:22.047Z,3.78
2023-02-02T00:54:23.562Z,3.79
2023-02-02T00:57:25.104Z,3.79
2023-02-02T01:00:28.352Z,3.76
2023-02-02T01:03:29.927Z,3.76
2023-02-02T01:06:31.587Z,3.76
2023-02-02T01:09:33.136Z,3.71
2023-02-02T01:12:35.145Z,3.73
2023-02-02T01:15:37.486Z,3.73
2023-02-02T01:18:39.381Z,3.71
2023-02-02T01:21:42.485Z,3.71
2023-02-02T01:24:44.125Z,3.74
2023-02-02T01:27:45.714Z,3.74
2023-02-02T01:30:48.026Z,3.75
2023-02-02T01:33:50.731Z,3.75
2023-02-02T01:36:53.025Z,3.76
2023-02-02T01:39:54.712Z,3.77
2023-02-02T01:42:56.241Z,3.78
2023-02-02T01:45:58.902Z,3.77
2023-02-02T01:49:11.502Z,3.79
2023-02-02T01:52:16.829Z,3.76
2023-02-02T01:55:22.168Z,3.78
2023-02-02T01:58:35.259Z,3.78
2023-02-02T02:01:36.823Z,3.78
2023-02-02T02:04:38.471Z,3.79
2023-02-02T02:07:44.134Z,3.75
2023-02-02T02:10:45.785Z,3.79
2023-02-02T02:14:07.033Z,3.77
2023-02-02T02:17:23.442Z,3.74
2023-02-02T02:20:56.029Z,3.74
2023-02-02T02:25:03.889Z,3.75
2023-02-02T02:28:36.365Z,3.77
2023-02-02T02:31:44.294Z,3.76
2023-02-02T02:34:58.044Z,3.70
2023-02-02T02:38:14.396Z,3.73
2023-02-02T02:41:28.896Z,3.72
2023-02-02T02:44:32.800Z,3.73
2023-02-02T02:47:35.416Z,3.70
2023-02-02T02:50:38.686Z,3.71
2023-02-02T02:53:40.756Z,3.69
2023-02-02T02:57:04.331Z,3.69
2023-02-02T03:00:24.927Z,3.65
2023-02-02T03:03:37.297Z,3.63
2023-02-02T03:07:05.350Z,3.60
2023-02-02T03:10:09.578Z,3.54
2023-02-02T03:13:12.985Z,3.49
2023-02-02T03:16:16.413Z,3.49
2023-02-02T03:19:18.324Z,3.43
2023-02-02T03:22:19.869Z,3.45
2023-02-02T03:25:21.434Z,3.45
2023-02-02T03:28:24.087Z,3.46
2023-02-02T03:31:27.419Z,3.47
2023-02-02T03:34:29.014Z,3.47
2023-02-02T03:37:30.516Z,3.42
2023-02-02T03:40:32.065Z,3.48
2023-02-02T03:43:33.674Z,3.46
2023-02-02T03:46:35.433Z,3.44
2023-02-02T03:49:36.987Z,3.41
2023-02-02T03:52:38.650Z,3.44
2023-02-02T03:55:41.529Z,3.43
2023-02-02T03:58:43.036Z,3.51
2023-02-02T04:01:44.694Z,3.52
2023-02-02T04:04:46.239Z,3.48
2023-02-02T04:07:49.132Z,3.46
2023-02-02T04:10:50.749Z,3.49
2023-02-02T04:13:52.274Z,3.50
2023-02-02T04:16:53.872Z,3.50
2023-02-02T04:19:58.196Z,3.51
2023-02-02T04:22:59.819Z,3.52
2023-02-02T04:26:01.615Z,3.53
2023-02-02T04:29:03.199Z,3.57
2023-02-02T04:32:04.903Z,3.58
2023-02-02T04:35:07.067Z,3.56
2023-02-02T04:38:09.342Z,3.58
2023-02-02T04:41:14.520Z,3.57
2023-02-02T04:44:16.763Z,3.59
2023-02-02T04:47:18.360Z,3.54
2023-02-02T04:50:19.967Z,3.52
2023-02-02T04:53:21.636Z,3.58
2023-02-02T04:56:23.181Z,3.60
2023-02-02T04:59:24.957Z,3.57
2023-02-02T05:02:26.458Z,3.59
2023-02-02T05:05:28.094Z,3.62
2023-02-02T05:08:29.746Z,3.62
2023-02-02T05:11:31.295Z,3.58
2023-02-02T05:14:32.898Z,3.63
2023-02-02T05:17:34.475Z,3.63
2023-02-02T05:20:36.023Z,3.65
2023-02-02T05:23:37.524Z,3.68
2023-02-02T05:26:39.129Z,3.69
2023-02-02T05:29:40.684Z,3.69
2023-02-02T05:32:42.306Z,3.72
2023-02-02T05:35:45.867Z,3.73
2023-02-02T05:38:47.405Z,3.75
2023-02-02T05:41:48.920Z,3.77
2023-02-02T05:44:50.487Z,3.81
2023-02-02T05:47:55.676Z,3.81
2023-02-02T05:51:03.552Z,3.80
2023-02-02T05:54:05.265Z,3.81
2023-02-02T05:57:06.907Z,3.83
2023-02-02T06:00:09.203Z,3.80
2023-02-02T06:03:13.690Z,3.79
2023-02-02T06:06:15.506Z,3.80
2023-02-02T06:09:17.057Z,3.81
2023-02-02T06:12:19.008Z,3.83
2023-02-02T06:15:20.578Z,3.84
2023-02-02T06:18:22.060Z,3.81
2023-02-02T06:21:24.746Z,3.79
2023-02-02T06:24:26.386Z,3.84
2023-02-02T06:27:27.912Z,3.81
2023-02-02T06:30:29.511Z,3.80
2023-02-02T06:33:31.114Z,3.78
2023-02-02T06:36:32.628Z,3.79
2023-02-02T06:39:34.141Z,3.69
2023-02-02T06:42:36.210Z,3.73
2023-02-02T06:45:40.204Z,3.71
2023-02-02T06:48:42.398Z,3.67
2023-02-02T06:51:44.386Z,3.67
2023-02-02T06:54:46.052Z,3.67
2023-02-02T06:57:47.557Z,3.70
2023-02-02T07:00:49.210Z,3.67
2023-02-02T07:03:51.365Z,3.71
2023-02-02T07:06:52.965Z,3.68
2023-02-02T07:09:58.212Z,3.68
2023-02-02T07:13:00.066Z,3.66
2023-02-02T07:16:06.318Z,3.67
2023-02-02T07:19:08.004Z,3.67
2023-02-02T07:22:09.595Z,3.71
2023-02-02T07:25:11.151Z,3.71
2023-02-02T07:28:12.713Z,3.74
2023-02-02T07:31:19.651Z,3.66
2023-02-02T07:34:21.404Z,3.74
2023-02-02T07:37:22.946Z,3.75
2023-02-02T07:40:24.529Z,3.79
2023-02-02T07:43:26.049Z,3.82
2023-02-02T07:46:27.729Z,3.86
2023-02-02T07:49:29.358Z,3.87
2023-02-02T07:52:30.913Z,3.91
2023-02-02T07:55:32.501Z,3.87
2023-02-02T07:58:34.164Z,3.95
2023-02-02T08:01:35.944Z,3.93
2023-02-02T08:04:37.575Z,3.97
2023-02-02T08:07:39.107Z,3.98
2023-02-02T08:10:47.020Z,4.02
2023-02-02T08:13:50.654Z,4.01
2023-02-02T08:16:52.243Z,4.00
2023-02-02T08:19:53.848Z,4.02
2023-02-02T08:22:56.465Z,4.00
2023-02-02T08:26:12.046Z,4.03
2023-02-02T08:29:17.204Z,4.03
2023-02-02T08:32:18.744Z,3.96
2023-02-02T08:35:20.373Z,4.00
2023-02-02T08:38:23.925Z,4.04
2023-02-02T08:41:25.561Z,4.06
2023-02-02T08:44:43.101Z,4.09
2023-02-02T08:47:55.996Z,4.08
2023-02-02T08:51:04.279Z,4.09
2023-02-02T08:54:05.932Z,4.09
2023-02-02T08:57:07.517Z,4.06
2023-02-02T09:00:09.631Z,4.06
2023-02-02T09:03:11.166Z,4.05
2023-02-02T09:06:16.052Z,4.07
2023-02-02T09:09:17.724Z,4.07
2023-02-02T09:12:19.292Z,4.09
2023-02-02T09:15:20.875Z,4.10
2023-02-02T09:18:22.365Z,4.09
2023-02-02T09:21:24.298Z,4.09
2023-02-02T09:24:25.974Z,4.07
2023-02-02T09:27:27.554Z,4.06
2023-02-02T09:30:29.130Z,4.02
2023-02-02T09:33:30.616Z,4.06
2023-02-02T09:36:33.127Z,4.08
2023-02-02T09:39:34.689Z,4.09
2023-02-02T09:42:58.302Z,4.14
2023-02-02T09:46:07.979Z,4.18
2023-02-02T09:49:14.766Z,4.17
2023-02-02T09:52:41.985Z,4.20
2023-02-02T09:55:56.917Z,4.25
2023-02-02T09:59:13.774Z,4.18
2023-02-02T10:02:39.715Z,4.27
2023-02-02T10:05:54.669Z,4.30
2023-02-02T10:09:07.025Z,4.28
2023-02-02T10:12:30.580Z,4.33
2023-02-02T10:15:36.214Z,4.31
2023-02-02T10:18:53.895Z,4.33
2023-02-02T10:22:06.482Z,4.35
2023-02-02T10:25:13.013Z,4.39
2023-02-02T10:28:20.552Z,4.39
2023-02-02T10:31:43.743Z,4.33
2023-02-02T10:35:13.504Z,4.30
2023-02-02T10:38:36.571Z,4.32
2023-02-02T10:41:52.757Z,4.34
2023-02-02T10:45:03.923Z,4.36
2023-02-02T10:48:23.423Z,4.39
2023-02-02T10:51:28.602Z,4.39
2023-02-02T10:55:07.776Z,4.41
2023-02-02T10:58:12.120Z,4.42
2023-02-02T11:01:18.063Z,4.42
2023-02-02T11:04:40.330Z,4.43
2023-02-02T11:07:42.467Z,4.42
2023-02-02T11:10:45.903Z,4.42
2023-02-02T11:13:58.249Z,4.41
2023-02-02T11:17:07.788Z,4.42
2023-02-02T11:20:34.048Z,4.40
2023-02-02T11:23:37.237Z,4.43
2023-02-02T11:26:56.100Z,4.40
2023-02-02T11:29:59.721Z,4.38
2023-02-02T11:33:21.483Z,4.41
2023-02-02T11:36:23.497Z,4.41
2023-02-02T11:39:26.279Z,4.42
2023-02-02T11:42:29.048Z,4.42
2023-02-02T11:45:35.894Z,4.44
2023-02-02T11:48:39.860Z,4.41
2023-02-02T11:51:42.786Z,4.41
2023-02-02T11:54:49.053Z,4.41
2023-02-02T11:58:11.988Z,4.42
2023-02-02T12:01:25.779Z,4.39
2023-02-02T12:04:27.759Z,4.42
2023-02-02T12:07:32.617Z,4.43
2023-02-02T12:10:47.387Z,4.44
2023-02-02T12:14:12.051Z,4.48
2023-02-02T12:17:35.607Z,4.48
2023-02-02T12:20:47.878Z,4.50
2023-02-02T12:24:00.218Z,4.49
2023-02-02T12:27:27.619Z,4.46
2023-02-02T12:30:56.229Z,4.48
2023-02-02T12:34:11.850Z,4.45
2023-02-02T12:37:14.589Z,4.44
2023-02-02T12:40:36.334Z,4.42
2023-02-02T12:43:44.315Z,4.44
2023-02-02T12:47:09.119Z,4.41
2023-02-02T12:50:25.022Z,4.41
2023-02-02T12:54:35.060Z,4.42
2023-02-02T12:57:51.538Z,4.36
2023-02-02T13:01:02.104Z,4.38
2023-02-02T13:04:41.775Z,4.36
2023-02-02T13:07:53.699Z,4.33
2023-02-02T13:11:29.897Z,4.29
2023-02-02T13:14:37.443Z,4.26
2023-02-02T13:17:46.755Z,4.27
2023-02-02T13:20:53.593Z,4.27
2023-02-02T13:24:02.583Z,4.25
2023-02-02T13:27:07.623Z,4.23
2023-02-02T13:30:32.520Z,4.24
2023-02-02T13:33:38.140Z,4.25
2023-02-02T13:36:44.120Z,4.22
2023-02-02T13:40:06.587Z,4.23
2023-02-02T13:43:16.455Z,4.19
2023-02-02T13:46:46.080Z,4.22
2023-02-02T13:49:53.093Z,4.27
2023-02-02T13:53:24.965Z,4.25
2023-02-02T13:56:29.321Z,4.21
2023-02-02T14:00:01.553Z,4.24
2023-02-02T14:03:28.772Z,4.22
2023-02-02T14:06:56.236Z,4.19
2023-02-02T14:09:58.418Z,4.22
2023-02-02T14:13:34.530Z,4.24
2023-02-02T14:16:36.949Z,4.25
2023-02-02T14:19:41.490Z,4.23
2023-02-02T14:22:48.337Z,4.23
2023-02-02T14:26:08.541Z,4.24
2023-02-02T14:29:31.516Z,4.24
2023-02-02T14:32:41.643Z,4.26
2023-02-02T14:35:43.596Z,4.27
2023-02-02T14:38:48.175Z,4.28
2023-02-02T14:42:24.048Z,4.25
2023-02-02T14:45:33.871Z,4.25
2023-02-02T14:48:39.031Z,4.23
2023-02-02T14:51:53.637Z,4.19
2023-02-02T14:54:57.971Z,4.21
2023-02-02T14:58:04.360Z,4.19
2023-02-02T15:01:29.124Z,4.20
2023-02-02T15:04:31.232Z,4.19
2023-02-02T15:07:32.741Z,4.15
2023-02-02T15:10:54.403Z,4.16
2023-02-02T15:14:06.903Z,4.16
2023-02-02T15:17:27.592Z,4.12
2023-02-02T15:21:00.568Z,4.13
2023-02-02T15:24:04.606Z,4.13
2023-02-02T15:27:12.336Z,4.07
2023-02-02T15:30:17.902Z,4.10
2023-02-02T15:33:30.610Z,4.12
2023-02-02T15:36:35.800Z,4.09
2023-02-02T15:39:41.783Z,4.06
2023-02-02T15:42:55.635Z,4.09
2023-02-02T15:46:04.918Z,4.10
2023-02-02T15:49:35.773Z,4.10
2023-02-02T15:52:47.869Z,4.12
2023-02-02T15:55:49.812Z,4.14
2023-02-02T15:58:57.047Z,4.15
2023-02-02T16:02:21.854Z,4.13
2023-02-02T16:05:35.992Z,4.15
2023-02-02T16:08:40.169Z,4.16
2023-02-02T16:11:42.284Z,4.14
2023-02-02T16:14:47.956Z,4.15
2023-02-02T16:18:12.315Z,4.14
2023-02-02T16:21:24.473Z,4.16
2023-02-02T16:24:30.427Z,4.15
2023-02-02T16:27:32.769Z,4.17
2023-02-02T16:30:38.131Z,4.18
2023-02-02T16:33:45.737Z,4.17
2023-02-02T16:37:17.868Z,4.16
2023-02-02T16:40:30.022Z,4.17
2023-02-02T16:43:32.072Z,4.16
2023-02-02T16:46:42.770Z,4.19
2023-02-02T16:49:44.797Z,4.18
2023-02-02T16:52:55.463Z,4.20
2023-02-02T16:55:58.022Z,4.21
2023-02-02T16:59:06.822Z,4.22
2023-02-02T17:02:27.090Z,4.22
2023-02-02T17:05:33.739Z,4.23
2023-02-02T17:08:39.286Z,4.27
2023-02-02T17:11:56.877Z,4.27
2023-02-02T17:15:04.975Z,4.28
2023-02-02T17:18:06.585Z,4.27
2023-02-02T17:21:14.857Z,4.29
2023-02-02T17:24:16.981Z,4.30
2023-02-02T17:27:29.049Z,4.31
2023-02-02T17:30:30.804Z,4.30
2023-02-02T17:33:34.473Z,4.31
2023-02-02T17:36:36.441Z,4.32
2023-02-02T17:39:38.437Z,4.31
2023-02-02T17:42:40.415Z,4.29
2023-02-02T17:45:46.732Z,4.29
2023-02-02T17:48:49.211Z,4.24
2023-02-02T17:55:26.546Z,4.29
2023-02-02T18:02:51.925Z,4.20
2023-02-02T18:06:09.929Z,4.26
2023-02-02T18:09:16.464Z,4.14
2023-02-02T18:12:25.295Z,4.27
2023-02-02T18:15:45.930Z,4.19
2023-02-02T18:22:22.352Z,4.23
2023-02-02T18:25:26.223Z,4.20
2023-02-02T18:28:27.957Z,4.17
2023-02-02T18:31:29.776Z,4.17
2023-02-02T18:34:33.629Z,4.18
2023-02-02T18:37:36.554Z,4.17
2023-02-02T18:40:38.761Z,4.14
2023-02-02T18:43:40.886Z,4.14
2023-02-02T18:46:43.042Z,4.12
2023-02-02T18:49:45.081Z,4.09
2023-02-02T18:52:46.724Z,4.04
2023-02-02T18:59:41.538Z,4.04
2023-02-02T19:02:43.114Z,4.05
2023-02-02T19:06:04.847Z,4.05
2023-02-02T19:09:07.925Z,4.00
2023-02-02T19:12:12.800Z,4.00
2023-02-02T19:15:15.048Z,3.97
2023-02-02T19:18:24.200Z,3.99
2023-02-02T19:21:30.297Z,3.99
2023-02-02T19:24:37.938Z,3.95
2023-02-02T19:27:41.364Z,3.92
2023-02-02T19:30:45.322Z,3.92
2023-02-02T19:33:49.964Z,3.93
2023-02-02T19:36:52.697Z,3.94
2023-02-02T19:40:07.089Z,3.91
2023-02-02T19:43:12.567Z,3.90
2023-02-02T19:46:18.776Z,3.92
2023-02-02T19:49:31.375Z,3.90
2023-02-02T19:52:34.500Z,3.85
2023-02-02T19:55:37.128Z,3.88
2023-02-02T19:58:38.641Z,3.87
2023-02-02T20:01:40.621Z,3.89
2023-02-02T20:04:42.156Z,3.90
2023-02-02T20:07:44.397Z,3.91
2023-02-02T20:10:46.733Z,3.90
2023-02-02T20:13:49.089Z,3.93
2023-02-02T20:16:56.178Z,3.92
2023-02-02T20:19:57.959Z,3.91
2023-02-02T20:22:59.874Z,3.90
2023-02-02T20:26:07.454Z,3.92
2023-02-02T20:29:23.323Z,3.94
2023-02-02T20:32:37.077Z,3.96
2023-02-02T20:35:41.752Z,3.96
2023-02-02T20:38:43.286Z,3.98
2023-02-02T20:41:44.906Z,3.97
2023-02-02T20:44:46.571Z,3.94
2023-02-02T20:47:49.624Z,4.00
2023-02-02T20:50:51.188Z,4.01
2023-02-02T20:53:55.556Z,3.97
2023-02-02T20:56:57.946Z,3.99
2023-02-02T20:59:59.749Z,3.98
2023-02-02T21:03:01.442Z,3.96
2023-02-02T21:06:02.992Z,4.00
2023-02-02T21:09:06.042Z,4.01
2023-02-02T21:12:07.797Z,3.99
2023-02-02T21:15:09.968Z,4.00
2023-02-02T21:18:11.529Z,4.02
2023-02-02T21:21:14.268Z,4.05
2023-02-02T21:24:15.822Z,4.04
2023-02-02T21:27:17.738Z,4.05
2023-02-02T21:30:19.464Z,4.05
2023-02-02T21:33:21.072Z,4.07
2023-02-02T21:36:36.004Z,4.08
2023-02-02T21:39:37.772Z,4.09
2023-02-02T21:42:40.079Z,4.12
2023-02-02T21:45:43.949Z,4.11
2023-02-02T21:48:47.898Z,4.12
2023-02-02T21:51:50.078Z,4.11
2023-02-02T21:54:51.615Z,4.13
2023-02-02T21:57:53.160Z,4.13
2023-02-02T22:00:58.518Z,4.12
2023-02-02T22:04:00.600Z,4.10
2023-02-02T22:07:12.585Z,4.15
2023-02-02T22:10:34.159Z,4.13
2023-02-02T22:13:35.668Z,4.14
2023-02-02T22:16:43.553Z,4.15
2023-02-02T22:19:45.085Z,4.13
2023-02-02T22:22:49.038Z,4.16
2023-02-02T22:25:54.169Z,4.16
2023-02-02T22:28:55.831Z,4.16
2023-02-02T22:31:57.477Z,4.16
2023-02-02T22:34:59.012Z,4.16
2023-02-02T22:38:01.072Z,4.20
2023-02-02T22:41:02.683Z,4.21
2023-02-02T22:44:04.409Z,4.23
2023-02-02T22:47:06.014Z,4.24
2023-02-02T22:50:08.027Z,4.23
2023-02-02T22:53:10.272Z,4.24
2023-02-02T22:56:11.835Z,4.27
2023-02-02T22:59:13.361Z,4.27
2023-02-02T23:02:14.929Z,4.28
2023-02-02T23:05:18.119Z,4.29
2023-02-02T23:08:19.738Z,4.25
2023-02-02T23:11:21.256Z,4.33
2023-02-02T23:14:22.811Z,4.32
2023-02-02T23:17:24.366Z,4.29
2023-02-02T23:20:26.187Z,4.30
2023-02-02T23:23:27.888Z,4.31
2023-02-02T23:26:29.421Z,4.32
2023-02-02T23:29:31.286Z,4.33
2023-02-02T23:32:33.442Z,4.31
2023-02-02T23:35:34.964Z,4.25
2023-02-02T23:38:36.532Z,4.33
2023-02-02T23:41:38.537Z,4.32
2023-02-02T23:44:40.191Z,4.31
2023-02-02T23:47:42.317Z,4.28
2023-02-02T23:50:45.015Z,4.29
2023-02-02T23:53:46.987Z,4.28
2023-02-02T23:56:49.552Z,4.27
2023-02-02T23:59:51.105Z,4.28
